createdAt,value
2023-08-05T00:00:38.082Z,72.18
2023-08-05T00:03:04.883Z,72.06
2023-08-05T00:05:31.775Z,71.97
2023-08-05T00:07:58.636Z,71.99
2023-08-05T00:10:25.394Z,71.68
2023-08-05T00:12:52.532Z,71.30
2023-08-05T00:15:19.304Z,71.16
2023-08-05T00:17:46.061Z,70.58
2023-08-05T00:20:13.670Z,70.54
2023-08-05T00:22:40.402Z,70.10
2023-08-05T00:25:07.469Z,70.18
2023-08-05T00:27:34.403Z,70.33
2023-08-05T00:30:01.065Z,70.21
2023-08-05T00:32:28.861Z,70.41
2023-08-05T00:34:55.760Z,70.29
2023-08-05T00:37:22.536Z,70.11
2023-08-05T00:39:49.137Z,70.31
2023-08-05T00:42:19.837Z,70.50
2023-08-05T00:44:46.900Z,70.51
2023-08-05T00:47:17.117Z,70.69
2023-08-05T00:49:44.085Z,70.66
2023-08-05T00:52:10.851Z,70.81
2023-08-05T00:54:37.462Z,70.90
2023-08-05T00:57:04.414Z,70.83
2023-08-05T00:59:31.103Z,70.69
2023-08-05T01:01:57.714Z,70.63
2023-08-05T01:04:28.038Z,70.82
2023-08-05T01:06:55.508Z,70.81
2023-08-05T01:09:26.106Z,70.64
2023-08-05T01:11:52.828Z,70.65
2023-08-05T01:14:19.605Z,70.80
2023-08-05T01:16:46.279Z,70.74
2023-08-05T01:19:23.427Z,70.69
2023-08-05T01:22:18.715Z,70.96
2023-08-05T01:24:54.567Z,70.76
2023-08-05T01:27:23.036Z,70.75
2023-08-05T01:29:49.784Z,70.77
2023-08-05T01:32:19.315Z,70.95
2023-08-05T01:34:46.954Z,70.82
2023-08-05T01:37:13.722Z,70.52
2023-08-05T01:39:40.638Z,70.30
2023-08-05T01:42:07.743Z,69.96
2023-08-05T01:44:34.616Z,70.01
2023-08-05T01:47:01.725Z,69.27
2023-08-05T01:49:28.483Z,69.17
2023-08-05T01:51:55.196Z,68.77
2023-08-05T01:54:22.024Z,68.38
2023-08-05T01:56:49.112Z,68.64
2023-08-05T01:59:15.936Z,68.51
2023-08-05T02:01:47.327Z,68.00
2023-08-05T02:04:15.063Z,68.11
2023-08-05T02:06:42.705Z,68.00
2023-08-05T02:09:09.628Z,68.08
2023-08-05T02:11:36.406Z,68.06
2023-08-05T02:14:04.019Z,68.05
2023-08-05T02:16:34.055Z,68.19
2023-08-05T02:19:01.176Z,68.42
2023-08-05T02:21:27.865Z,68.43
2023-08-05T02:23:56.180Z,68.64
2023-08-05T02:26:23.122Z,68.78
2023-08-05T02:28:50.064Z,68.88
2023-08-05T02:31:17.245Z,68.85
2023-08-05T02:33:43.904Z,68.86
2023-08-05T02:36:11.019Z,68.89
2023-08-05T02:38:37.896Z,68.98
2023-08-05T02:41:08.980Z,69.12
2023-08-05T02:43:35.765Z,69.18
2023-08-05T02:46:02.905Z,69.24
2023-08-05T02:48:29.631Z,69.53
2023-08-05T02:50:56.631Z,69.57
2023-08-05T02:53:23.536Z,69.47
2023-08-05T02:55:50.263Z,69.48
2023-08-05T02:58:17.283Z,69.54
2023-08-05T03:00:44.901Z,69.39
2023-08-05T03:03:12.266Z,69.51
2023-08-05T03:05:39.028Z,69.51
2023-08-05T03:08:06.190Z,69.72
2023-08-05T03:10:32.894Z,69.98
2023-08-05T03:12:59.709Z,69.80
2023-08-05T03:15:30.316Z,69.90
2023-08-05T03:17:57.450Z,69.88
2023-08-05T03:20:26.311Z,69.98
2023-08-05T03:22:56.543Z,70.14
2023-08-05T03:25:24.351Z,70.01
2023-08-05T03:27:51.473Z,70.24
2023-08-05T03:30:18.949Z,70.15
2023-08-05T03:32:47.932Z,70.05
2023-08-05T03:35:14.780Z,69.94
2023-08-05T03:37:41.516Z,69.79
2023-08-05T03:40:08.886Z,69.51
2023-08-05T03:42:35.623Z,69.57
2023-08-05T03:45:02.758Z,69.55
2023-08-05T03:47:29.760Z,69.21
2023-08-05T03:49:56.544Z,69.08
2023-08-05T03:52:25.333Z,69.10
2023-08-05T03:54:52.580Z,69.07
2023-08-05T03:57:19.180Z,69.20
2023-08-05T03:59:48.376Z,68.72
2023-08-05T04:02:15.807Z,68.32
2023-08-05T04:04:43.898Z,68.74
2023-08-05T04:07:10.906Z,69.31
2023-08-05T04:09:38.373Z,69.65
2023-08-05T04:12:06.660Z,69.79
2023-08-05T04:14:33.614Z,69.88
2023-08-05T04:17:01.717Z,70.34
2023-08-05T04:19:28.560Z,69.93
2023-08-05T04:21:55.952Z,70.15
2023-08-05T04:24:28.121Z,69.93
2023-08-05T04:26:54.747Z,69.81
2023-08-05T04:29:28.020Z,70.12
2023-08-05T04:31:54.800Z,69.47
2023-08-05T04:34:22.003Z,69.75
2023-08-05T04:36:53.644Z,69.53
2023-08-05T04:39:21.183Z,69.47
2023-08-05T04:41:48.469Z,69.43
2023-08-05T04:44:15.120Z,69.41
2023-08-05T04:46:41.821Z,69.18
2023-08-05T04:49:11.099Z,69.27
2023-08-05T04:51:38.010Z,69.00
2023-08-05T04:54:06.052Z,68.95
2023-08-05T04:56:34.802Z,68.89
2023-08-05T04:59:01.643Z,69.15
2023-08-05T05:01:28.795Z,69.05
2023-08-05T05:03:56.961Z,69.23
2023-08-05T05:06:25.206Z,69.15
2023-08-05T05:08:51.929Z,68.81
2023-08-05T05:11:18.606Z,68.71
2023-08-05T05:13:47.770Z,68.63
2023-08-05T05:16:14.461Z,68.73
2023-08-05T05:18:41.186Z,68.74
2023-08-05T05:21:07.940Z,68.11
2023-08-05T05:23:35.029Z,67.12
2023-08-05T05:26:01.911Z,66.50
2023-08-05T05:28:28.698Z,65.47
2023-08-05T05:30:55.467Z,65.32
2023-08-05T05:33:22.408Z,65.47
2023-08-05T05:35:51.225Z,65.18
2023-08-05T05:38:17.862Z,65.78
2023-08-05T05:40:44.546Z,65.65
2023-08-05T05:43:11.186Z,65.39
2023-08-05T05:45:38.127Z,65.63
2023-08-05T05:48:05.263Z,65.09
2023-08-05T05:50:32.015Z,66.05
2023-08-05T05:52:58.859Z,65.23
2023-08-05T05:55:25.854Z,65.07
2023-08-05T05:57:52.536Z,64.43
2023-08-05T06:00:19.332Z,63.83
2023-08-05T06:05:35.181Z,63.36
2023-08-05T06:08:02.073Z,62.96
2023-08-05T06:10:28.808Z,63.02
2023-08-05T06:12:56.666Z,62.38
2023-08-05T06:15:23.396Z,62.68
2023-08-05T06:17:50.958Z,61.69
2023-08-05T06:20:17.842Z,61.49
2023-08-05T06:22:45.146Z,60.98
2023-08-05T06:25:11.913Z,61.04
2023-08-05T06:27:39.176Z,60.66
2023-08-05T06:30:07.057Z,60.75
2023-08-05T06:32:33.861Z,59.79
2023-08-05T06:35:00.583Z,59.67
2023-08-05T06:37:27.715Z,59.52
2023-08-05T06:39:54.405Z,59.00
2023-08-05T06:42:24.737Z,58.51
2023-08-05T06:44:51.576Z,58.22
2023-08-05T06:47:18.245Z,56.95
2023-08-05T06:49:45.264Z,56.27
2023-08-05T06:52:12.231Z,55.48
2023-08-05T06:54:39.494Z,54.83
2023-08-05T06:57:06.683Z,54.88
2023-08-05T06:59:36.252Z,55.58
2023-08-05T07:02:03.244Z,54.48
2023-08-05T07:04:30.321Z,54.00
2023-08-05T07:06:59.907Z,53.91
2023-08-05T07:09:26.688Z,52.76
2023-08-05T07:11:55.642Z,51.35
2023-08-05T07:14:22.349Z,50.60
2023-08-05T07:16:49.022Z,50.14
2023-08-05T07:19:15.716Z,49.25
2023-08-05T07:21:42.468Z,49.76
2023-08-05T07:24:09.269Z,48.55
2023-08-05T07:26:36.077Z,47.65
2023-08-05T07:29:02.744Z,46.69
2023-08-05T07:31:29.481Z,46.08
2023-08-05T07:33:56.280Z,45.60
2023-08-05T07:36:23.903Z,44.86
2023-08-05T07:38:52.323Z,44.17
2023-08-05T07:41:21.423Z,44.35
2023-08-05T07:43:48.609Z,43.85
2023-08-05T07:46:15.630Z,43.09
2023-08-05T07:48:46.497Z,42.53
2023-08-05T07:51:13.943Z,42.12
2023-08-05T07:53:41.082Z,41.90
2023-08-05T07:56:14.203Z,41.83
2023-08-05T07:58:46.440Z,41.59
2023-08-05T08:01:14.960Z,41.75
2023-08-05T08:03:46.639Z,42.24
2023-08-05T08:06:17.349Z,41.65
2023-08-05T08:08:46.410Z,40.89
2023-08-05T08:11:13.506Z,40.69
2023-08-05T08:13:40.858Z,40.39
2023-08-05T08:16:08.472Z,39.69
2023-08-05T08:18:35.129Z,39.64
2023-08-05T08:21:01.889Z,40.15
2023-08-05T08:23:28.847Z,40.07
2023-08-05T08:25:59.062Z,40.01
2023-08-05T08:28:26.370Z,39.69
2023-08-05T08:30:59.551Z,39.18
2023-08-05T08:33:27.241Z,38.82
2023-08-05T08:35:54.148Z,38.51
2023-08-05T08:38:22.628Z,37.95
2023-08-05T08:40:51.067Z,37.89
2023-08-05T08:43:22.375Z,37.92
2023-08-05T08:45:53.299Z,37.36
2023-08-05T08:48:24.421Z,37.39
2023-08-05T08:50:54.304Z,37.36
2023-08-05T08:53:22.956Z,36.82
2023-08-05T08:55:50.066Z,36.57
2023-08-05T08:58:16.815Z,36.49
2023-08-05T09:00:43.621Z,36.39
2023-08-05T09:03:11.101Z,36.25
2023-08-05T09:05:50.702Z,36.16
2023-08-05T09:08:17.376Z,36.31
2023-08-05T09:10:47.892Z,36.22
2023-08-05T09:13:18.257Z,36.21
2023-08-05T09:15:45.215Z,35.91
2023-08-05T09:18:12.069Z,35.77
2023-08-05T09:20:39.759Z,36.23
2023-08-05T09:23:08.770Z,36.54
2023-08-05T09:25:40.478Z,35.82
2023-08-05T09:28:07.514Z,35.25
2023-08-05T09:30:34.792Z,34.87
2023-08-05T09:33:01.926Z,34.33
2023-08-05T09:35:28.722Z,33.96
2023-08-05T09:37:56.261Z,33.97
2023-08-05T09:40:24.181Z,33.92
2023-08-05T09:42:51.916Z,34.65
2023-08-05T09:45:20.866Z,34.24
2023-08-05T09:47:48.755Z,33.85
2023-08-05T09:50:19.237Z,33.56
2023-08-05T09:52:51.250Z,33.74
2023-08-05T09:55:20.264Z,32.89
2023-08-05T09:57:48.117Z,32.63
2023-08-05T10:00:16.125Z,32.04
2023-08-05T10:02:46.914Z,32.21
2023-08-05T10:05:14.206Z,32.44
2023-08-05T10:07:42.362Z,32.59
2023-08-05T10:10:21.163Z,32.34
2023-08-05T10:12:59.271Z,32.71
2023-08-05T10:15:38.906Z,32.59
2023-08-05T10:18:12.319Z,32.41
2023-08-05T10:20:39.887Z,32.34
2023-08-05T10:23:08.892Z,33.01
2023-08-05T10:26:02.293Z,33.03
2023-08-05T10:28:34.733Z,32.40
2023-08-05T10:31:07.748Z,32.11
2023-08-05T10:34:10.817Z,32.34
2023-08-05T10:36:46.200Z,32.06
2023-08-05T10:39:51.553Z,31.74
2023-08-05T10:42:20.157Z,31.23
2023-08-05T10:44:49.897Z,30.57
2023-08-05T10:47:21.973Z,30.10
2023-08-05T10:49:56.308Z,30.65
2023-08-05T10:52:25.073Z,30.07
2023-08-05T10:54:53.135Z,29.99
2023-08-05T10:57:34.955Z,29.99
2023-08-05T11:00:04.122Z,29.57
2023-08-05T11:02:32.425Z,29.69
2023-08-05T11:05:10.175Z,29.16
2023-08-05T11:07:46.370Z,29.43
2023-08-05T11:10:21.709Z,29.57
2023-08-05T11:12:48.477Z,29.70
2023-08-05T11:15:15.334Z,29.00
2023-08-05T11:17:56.243Z,29.30
2023-08-05T11:20:32.437Z,28.94
2023-08-05T11:22:59.261Z,28.89
2023-08-05T11:25:26.188Z,28.81
2023-08-05T11:27:57.079Z,28.61
2023-08-05T11:30:24.259Z,28.50
2023-08-05T11:32:57.145Z,28.22
2023-08-05T11:35:25.456Z,28.18
2023-08-05T11:37:52.560Z,28.42
2023-08-05T11:40:19.534Z,27.92
2023-08-05T11:42:46.925Z,28.61
2023-08-05T11:45:15.337Z,28.23
2023-08-05T11:47:43.318Z,28.74
2023-08-05T11:50:13.939Z,28.70
2023-08-05T11:53:23.165Z,28.38
2023-08-05T11:55:50.045Z,28.32
2023-08-05T11:58:16.935Z,28.35
2023-08-05T12:00:45.738Z,28.31
2023-08-05T12:03:12.774Z,28.16
2023-08-05T12:05:39.656Z,28.84
2023-08-05T12:08:06.412Z,28.95
2023-08-05T12:10:33.435Z,29.00
2023-08-05T12:13:04.987Z,29.38
2023-08-05T12:15:32.246Z,29.75
2023-08-05T12:18:08.045Z,30.25
2023-08-05T12:20:37.628Z,29.89
2023-08-05T12:23:06.801Z,30.06
2023-08-05T12:25:34.219Z,29.52
2023-08-05T12:28:05.939Z,29.64
2023-08-05T12:30:34.064Z,29.96
2023-08-05T12:33:01.332Z,29.97
2023-08-05T12:35:28.259Z,29.68
2023-08-05T12:37:55.170Z,29.49
2023-08-05T12:40:21.905Z,30.05
2023-08-05T12:42:48.790Z,30.40
2023-08-05T12:45:15.586Z,30.77
2023-08-05T12:47:42.447Z,30.61
2023-08-05T12:50:09.889Z,30.92
2023-08-05T12:52:36.957Z,30.65
2023-08-05T12:55:04.443Z,30.99
2023-08-05T12:57:33.393Z,30.71
2023-08-05T13:00:00.825Z,31.09
2023-08-05T13:02:27.798Z,31.07
2023-08-05T13:04:54.705Z,31.39
2023-08-05T13:07:21.638Z,31.37
2023-08-05T13:09:48.521Z,31.61
2023-08-05T13:12:15.971Z,31.36
2023-08-05T13:14:44.464Z,31.34
2023-08-05T13:17:11.514Z,31.34
2023-08-05T13:19:39.010Z,31.90
2023-08-05T13:22:06.087Z,31.81
2023-08-05T13:24:34.756Z,31.86
2023-08-05T13:27:05.471Z,31.72
2023-08-05T13:29:32.181Z,31.97
2023-08-05T13:31:59.748Z,32.10
2023-08-05T13:34:26.418Z,31.98
2023-08-05T13:36:53.257Z,32.36
2023-08-05T13:39:20.062Z,32.34
2023-08-05T13:41:46.796Z,31.90
2023-08-05T13:44:13.691Z,31.12
2023-08-05T13:46:40.449Z,31.75
2023-08-05T13:49:07.615Z,31.93
2023-08-05T13:51:35.211Z,31.96
2023-08-05T13:54:02.272Z,31.92
2023-08-05T13:56:28.956Z,31.98
2023-08-05T13:58:55.903Z,31.63
2023-08-05T14:01:22.912Z,32.16
2023-08-05T14:03:49.823Z,31.93
2023-08-05T14:06:16.676Z,31.92
2023-08-05T14:08:49.214Z,32.65
2023-08-05T14:11:16.944Z,31.93
2023-08-05T14:13:46.539Z,31.85
2023-08-05T14:16:13.315Z,31.42
2023-08-05T14:18:40.078Z,31.25
2023-08-05T14:21:07.581Z,31.31
2023-08-05T14:23:34.363Z,31.04
2023-08-05T14:26:01.371Z,31.34
2023-08-05T14:28:28.642Z,31.15
2023-08-05T14:30:55.424Z,30.99
2023-08-05T14:33:22.314Z,30.82
2023-08-05T14:35:49.059Z,30.53
2023-08-05T14:38:15.708Z,30.70
2023-08-05T14:40:42.587Z,30.60
2023-08-05T14:43:09.559Z,30.62
2023-08-05T14:45:40.469Z,30.39
2023-08-05T14:48:07.644Z,30.30
2023-08-05T14:50:39.296Z,30.16
2023-08-05T14:53:06.743Z,30.25
2023-08-05T14:55:33.590Z,30.06
2023-08-05T14:58:00.495Z,30.34
2023-08-05T15:00:28.008Z,30.02
2023-08-05T15:02:55.552Z,29.82
2023-08-05T15:05:22.791Z,30.09
2023-08-05T15:07:49.601Z,30.33
2023-08-05T15:10:16.477Z,30.13
2023-08-05T15:12:43.286Z,30.50
2023-08-05T15:15:10.354Z,30.50
2023-08-05T15:17:37.081Z,30.76
2023-08-05T15:20:04.363Z,31.25
2023-08-05T15:22:31.008Z,31.21
2023-08-05T15:24:58.936Z,31.17
2023-08-05T15:27:25.839Z,31.34
2023-08-05T15:29:59.216Z,31.67
2023-08-05T15:32:26.914Z,31.94
2023-08-05T15:34:54.157Z,31.96
2023-08-05T15:37:20.944Z,32.18
2023-08-05T15:39:47.612Z,32.43
2023-08-05T15:42:14.422Z,32.72
2023-08-05T15:44:41.129Z,32.80
2023-08-05T15:47:07.861Z,32.91
2023-08-05T15:49:34.700Z,33.20
2023-08-05T15:52:01.527Z,33.62
2023-08-05T15:54:28.203Z,33.79
2023-08-05T15:56:54.933Z,34.08
2023-08-05T15:59:21.553Z,33.99
2023-08-05T16:01:48.232Z,34.33
2023-08-05T16:04:15.290Z,34.68
2023-08-05T16:06:44.301Z,34.60
2023-08-05T16:09:11.420Z,34.91
2023-08-05T16:11:38.373Z,35.07
2023-08-05T16:14:05.092Z,35.02
2023-08-05T16:16:31.922Z,35.38
2023-08-05T16:18:58.755Z,35.93
2023-08-05T16:21:26.108Z,35.97
2023-08-05T16:23:58.757Z,35.66
2023-08-05T16:26:27.081Z,35.71
2023-08-05T16:28:54.422Z,35.65
2023-08-05T16:31:23.712Z,36.02
2023-08-05T16:33:50.684Z,36.11
2023-08-05T16:36:17.542Z,36.51
2023-08-05T16:38:46.751Z,36.76
2023-08-05T16:41:13.735Z,36.60
2023-08-05T16:43:44.671Z,37.02
2023-08-05T16:46:11.719Z,37.10
2023-08-05T16:48:38.530Z,37.19
2023-08-05T16:51:06.133Z,37.45
2023-08-05T16:53:34.391Z,37.82
2023-08-05T16:56:05.417Z,37.96
2023-08-05T16:58:32.460Z,38.01
2023-08-05T17:00:59.250Z,38.37
2023-08-05T17:03:26.389Z,38.53
2023-08-05T17:05:53.591Z,38.67
2023-08-05T17:08:20.937Z,38.71
2023-08-05T17:10:47.662Z,39.20
2023-08-05T17:13:14.278Z,39.20
2023-08-05T17:15:45.362Z,39.65
2023-08-05T17:18:13.481Z,39.56
2023-08-05T17:20:40.362Z,39.61
2023-08-05T17:23:07.009Z,40.24
2023-08-05T17:25:38.198Z,40.32
2023-08-05T17:28:04.929Z,40.61
2023-08-05T17:30:33.501Z,40.41
2023-08-05T17:33:00.347Z,40.58
2023-08-05T17:35:29.924Z,41.09
2023-08-05T17:37:56.794Z,41.25
2023-08-05T17:40:23.798Z,41.18
2023-08-05T17:42:50.493Z,41.51
2023-08-05T17:45:18.928Z,41.56
2023-08-05T17:47:46.437Z,41.59
2023-08-05T17:50:13.519Z,41.53
2023-08-05T17:52:40.502Z,41.53
2023-08-05T17:55:07.762Z,41.97
2023-08-05T17:57:34.433Z,42.01
2023-08-05T18:00:01.318Z,42.20
2023-08-05T18:02:28.200Z,42.38
2023-08-05T18:04:55.015Z,42.62
2023-08-05T18:07:21.705Z,42.26
2023-08-05T18:09:48.533Z,42.82
2023-08-05T18:12:15.371Z,42.72
2023-08-05T18:14:46.275Z,42.97
2023-08-05T18:17:12.943Z,43.34
2023-08-05T18:19:39.614Z,43.30
2023-08-05T18:22:07.231Z,43.48
2023-08-05T18:24:34.067Z,43.66
2023-08-05T18:27:00.838Z,43.36
2023-08-05T18:29:27.498Z,43.35
2023-08-05T18:31:54.643Z,43.45
2023-08-05T18:34:22.647Z,43.21
2023-08-05T18:36:51.284Z,43.41
2023-08-05T18:39:18.216Z,43.33
2023-08-05T18:41:49.024Z,43.35
2023-08-05T18:44:16.522Z,43.65
2023-08-05T18:46:43.489Z,43.30
2023-08-05T18:49:10.151Z,43.40
2023-08-05T18:51:37.225Z,43.60
2023-08-05T18:54:04.473Z,43.87
2023-08-05T18:56:31.285Z,43.91
2023-08-05T18:58:58.079Z,43.69
2023-08-05T19:01:24.967Z,43.62
2023-08-05T19:03:51.806Z,43.59
2023-08-05T19:06:18.676Z,43.63
2023-08-05T19:08:50.972Z,43.79
2023-08-05T19:11:31.717Z,43.72
2023-08-05T19:14:12.511Z,43.64
2023-08-05T19:16:41.289Z,43.79
2023-08-05T19:19:13.636Z,44.13
2023-08-05T19:21:40.477Z,43.97
2023-08-05T19:24:07.598Z,44.46
2023-08-05T19:26:40.428Z,44.38
2023-08-05T19:29:07.824Z,44.80
2023-08-05T19:31:35.848Z,44.99
2023-08-05T19:34:02.684Z,44.90
2023-08-05T19:36:29.311Z,45.43
2023-08-05T19:38:56.125Z,45.52
2023-08-05T19:41:23.303Z,46.02
2023-08-05T19:43:50.003Z,46.52
2023-08-05T19:46:16.794Z,46.54
2023-08-05T19:48:46.856Z,46.83
2023-08-05T19:51:15.066Z,46.90
2023-08-05T19:53:46.645Z,46.90
2023-08-05T19:56:14.190Z,47.02
2023-08-05T19:58:49.544Z,47.01
2023-08-05T20:01:16.852Z,47.40
2023-08-05T20:03:43.764Z,47.52
2023-08-05T20:06:13.440Z,47.72
2023-08-05T20:08:44.552Z,47.65
2023-08-05T20:11:12.684Z,47.70
2023-08-05T20:13:39.515Z,47.89
2023-08-05T20:16:06.402Z,47.99
2023-08-05T20:21:17.139Z,48.01
2023-08-05T20:23:46.781Z,48.36
2023-08-05T20:26:15.068Z,48.45
2023-08-05T20:28:46.753Z,48.50
2023-08-05T20:31:21.216Z,48.76
2023-08-05T20:33:48.373Z,49.32
2023-08-05T20:36:15.276Z,48.96
2023-08-05T20:38:42.355Z,48.93
2023-08-05T20:41:09.752Z,48.96
2023-08-05T20:43:36.763Z,49.09
2023-08-05T20:46:03.729Z,49.16
2023-08-05T20:48:30.692Z,48.99
2023-08-05T20:50:58.447Z,49.08
2023-08-05T20:53:25.163Z,49.04
2023-08-05T20:55:52.073Z,49.11
2023-08-05T20:58:18.820Z,48.86
2023-08-05T21:01:00.933Z,49.34
2023-08-05T21:03:28.236Z,49.45
2023-08-05T21:06:02.196Z,49.49
2023-08-05T21:08:31.772Z,49.52
2023-08-05T21:11:09.784Z,49.93
2023-08-05T21:13:40.557Z,49.92
2023-08-05T21:16:08.560Z,50.10
2023-08-05T21:18:35.686Z,50.21
2023-08-05T21:21:02.745Z,50.21
2023-08-05T21:23:29.567Z,50.40
2023-08-05T21:25:56.814Z,50.22
2023-08-05T21:28:23.572Z,50.30
2023-08-05T21:30:51.745Z,50.28
2023-08-05T21:33:18.609Z,50.59
2023-08-05T21:35:45.239Z,50.45
2023-08-05T21:38:11.938Z,50.47
2023-08-05T21:40:46.676Z,50.87
2023-08-05T21:43:14.666Z,50.78
2023-08-05T21:45:55.361Z,50.89
2023-08-05T21:48:22.680Z,50.92
2023-08-05T21:50:50.240Z,51.04
2023-08-05T21:53:17.405Z,51.00
2023-08-05T21:55:45.781Z,51.18
2023-08-05T21:58:12.863Z,51.47
2023-08-05T22:00:40.089Z,51.24
2023-08-05T22:03:07.064Z,51.38
2023-08-05T22:05:34.073Z,51.36
2023-08-05T22:08:01.023Z,51.71
2023-08-05T22:10:27.670Z,51.71
2023-08-05T22:12:54.706Z,51.99
2023-08-05T22:15:21.641Z,52.17
2023-08-05T22:17:48.954Z,52.49
2023-08-05T22:20:16.690Z,52.65
2023-08-05T22:22:43.570Z,52.76
2023-08-05T22:25:10.537Z,53.13
2023-08-05T22:27:37.664Z,53.19
2023-08-05T22:30:08.432Z,53.06
2023-08-05T22:32:35.879Z,52.91
2023-08-05T22:35:03.424Z,53.29
2023-08-05T22:37:30.627Z,53.57
2023-08-05T22:40:02.098Z,53.55
2023-08-05T22:42:28.908Z,53.60
2023-08-05T22:44:55.803Z,53.95
2023-08-05T22:47:22.781Z,54.01
2023-08-05T22:49:49.541Z,53.92
2023-08-05T22:52:16.242Z,54.07
2023-08-05T22:54:43.000Z,54.28
2023-08-05T22:57:09.761Z,54.27
2023-08-05T22:59:36.450Z,54.57
2023-08-05T23:02:03.246Z,54.70
2023-08-05T23:04:29.917Z,54.65
2023-08-05T23:06:56.916Z,54.96
2023-08-05T23:09:23.815Z,55.27
2023-08-05T23:11:52.497Z,55.71
2023-08-05T23:14:19.940Z,56.15
2023-08-05T23:16:46.682Z,55.87
2023-08-05T23:19:14.113Z,56.02
2023-08-05T23:21:43.951Z,55.98
2023-08-05T23:24:12.027Z,55.94
2023-08-05T23:26:39.558Z,55.66
2023-08-05T23:29:06.701Z,55.49
2023-08-05T23:31:34.361Z,55.61
2023-08-05T23:34:01.334Z,55.27
2023-08-05T23:36:28.744Z,54.89
2023-08-05T23:38:55.676Z,54.90
2023-08-05T23:41:22.726Z,54.81
2023-08-05T23:43:49.648Z,55.14
2023-08-05T23:46:16.391Z,55.32
2023-08-05T23:48:43.252Z,55.56
2023-08-05T23:51:10.070Z,55.93
2023-08-05T23:53:36.820Z,56.15
2023-08-05T23:56:03.883Z,56.33
2023-08-05T23:58:30.797Z,56.42
